createdAt,value
2023-04-11T00:00:03.442Z,1.40
2023-04-11T00:02:34.860Z,1.00
2023-04-11T00:05:04.521Z,3.20
2023-04-11T00:07:32.880Z,1.00
2023-04-11T00:10:00.867Z,3.00
2023-04-11T00:12:28.857Z,1.00
2023-04-11T00:14:56.859Z,1.00
2023-04-11T00:17:25.092Z,0.00
2023-04-11T00:19:53.972Z,1.00
2023-04-11T00:22:24.475Z,0.00
2023-04-11T00:24:53.137Z,0.00
2023-04-11T00:27:21.983Z,1.00
2023-04-11T00:29:50.013Z,0.40
2023-04-11T00:32:18.003Z,0.00
2023-04-11T00:34:46.246Z,1.40
2023-04-11T00:37:14.223Z,0.60
2023-04-11T00:39:45.110Z,0.00
2023-04-11T00:42:13.024Z,0.80
2023-04-11T00:44:40.991Z,0.60
2023-04-11T00:47:08.961Z,0.60
2023-04-11T00:49:36.973Z,2.20
2023-04-11T00:52:05.862Z,1.60
2023-04-11T00:54:33.973Z,2.40
2023-04-11T00:57:04.206Z,2.20
2023-04-11T00:59:32.911Z,2.40
2023-04-11T01:02:01.581Z,5.20
2023-04-11T01:04:30.727Z,3.60
2023-04-11T01:07:01.900Z,3.20
2023-04-11T01:09:29.863Z,5.80
2023-04-11T01:11:57.825Z,2.80
2023-04-11T01:14:27.088Z,4.20
2023-04-11T01:16:56.564Z,3.60
2023-04-11T01:19:26.170Z,5.40
2023-04-11T01:21:54.458Z,6.20
2023-04-11T01:24:23.822Z,7.00
2023-04-11T01:26:52.194Z,14.20
2023-04-11T01:29:20.221Z,13.00
2023-04-11T01:31:48.205Z,16.20
2023-04-11T01:34:17.828Z,18.20
2023-04-11T01:36:45.935Z,7.80
2023-04-11T01:39:13.916Z,7.00
2023-04-11T01:41:43.650Z,12.60
2023-04-11T01:44:11.676Z,11.80
2023-04-11T01:46:39.653Z,13.00
2023-04-11T01:49:07.922Z,9.40
2023-04-11T01:51:36.272Z,4.60
2023-04-11T01:54:04.310Z,6.40
2023-04-11T01:56:32.569Z,6.40
2023-04-11T01:59:01.906Z,6.80
2023-04-11T02:01:29.906Z,2.60
2023-04-11T02:03:58.231Z,4.40
2023-04-11T02:06:27.515Z,5.80
2023-04-11T02:08:55.821Z,6.60
2023-04-11T02:11:24.170Z,9.00
2023-04-11T02:13:52.909Z,4.00
2023-04-11T02:16:26.045Z,7.80
2023-04-11T02:18:54.972Z,9.20
2023-04-11T02:21:23.093Z,8.80
2023-04-11T02:23:51.048Z,8.60
2023-04-11T02:26:19.035Z,8.40
2023-04-11T02:28:46.940Z,6.20
2023-04-11T02:31:14.959Z,8.20
2023-04-11T02:33:44.346Z,8.20
2023-04-11T02:36:12.625Z,6.00
2023-04-11T02:38:40.715Z,2.20
2023-04-11T02:41:09.104Z,1.80
2023-04-11T02:43:36.976Z,4.40
2023-04-11T02:46:12.793Z,9.20
2023-04-11T02:48:41.184Z,6.00
2023-04-11T02:51:10.915Z,5.20
2023-04-11T02:53:38.831Z,2.40
2023-04-11T02:56:07.862Z,1.00
2023-04-11T02:58:39.027Z,3.00
2023-04-11T03:01:08.061Z,2.60
2023-04-11T03:03:36.071Z,0.00
2023-04-11T03:06:04.573Z,1.40
2023-04-11T03:08:35.854Z,1.00
2023-04-11T03:11:03.942Z,1.40
2023-04-11T03:13:31.903Z,1.00
2023-04-11T03:15:59.881Z,1.40
2023-04-11T03:18:27.890Z,1.80
2023-04-11T03:20:56.566Z,3.00
2023-04-11T03:23:24.517Z,0.00
2023-04-11T03:25:53.874Z,3.20
2023-04-11T03:28:23.290Z,2.60
2023-04-11T03:30:51.311Z,1.00
2023-04-11T03:33:19.321Z,1.80
2023-04-11T03:35:47.302Z,3.80
2023-04-11T03:38:15.266Z,1.40
2023-04-11T03:40:43.224Z,1.00
2023-04-11T03:43:12.816Z,1.00
2023-04-11T03:45:40.729Z,3.00
2023-04-11T03:48:08.658Z,1.00
2023-04-11T03:50:36.635Z,1.40
2023-04-11T03:53:04.601Z,1.80
2023-04-11T03:55:32.615Z,3.00
2023-04-11T03:58:00.550Z,0.00
2023-04-11T04:00:30.365Z,1.00
2023-04-11T04:02:58.479Z,0.40
2023-04-11T04:05:27.096Z,1.00
2023-04-11T04:07:56.040Z,2.60
2023-04-11T04:10:24.129Z,3.00
2023-04-11T04:12:52.537Z,1.00
2023-04-11T04:15:21.480Z,1.00
2023-04-11T04:17:50.878Z,1.00
2023-04-11T04:20:19.054Z,1.00
2023-04-11T04:22:47.861Z,3.00
2023-04-11T04:25:15.970Z,1.00
2023-04-11T04:27:46.617Z,1.00
2023-04-11T04:30:15.833Z,1.00
2023-04-11T04:32:45.109Z,3.00
2023-04-11T04:35:16.899Z,1.40
2023-04-11T04:37:46.610Z,3.80
2023-04-11T04:40:15.959Z,0.80
2023-04-11T04:42:44.080Z,1.00
2023-04-11T04:45:12.195Z,1.40
2023-04-11T04:47:40.354Z,3.00
2023-04-11T04:50:09.355Z,3.00
2023-04-11T04:52:38.964Z,1.00
2023-04-11T04:55:07.541Z,1.40
2023-04-11T04:57:35.491Z,3.00
2023-04-11T05:00:06.947Z,1.00
2023-04-11T05:02:35.169Z,3.40
2023-04-11T05:05:04.511Z,1.80
2023-04-11T05:07:32.720Z,1.80
2023-04-11T05:10:02.078Z,0.00
2023-04-11T05:12:30.052Z,1.80
2023-04-11T05:14:58.035Z,3.00
2023-04-11T05:17:27.802Z,2.60
2023-04-11T05:19:55.816Z,2.60
2023-04-11T05:22:23.746Z,3.00
2023-04-11T05:24:51.800Z,3.40
2023-04-11T05:27:22.033Z,3.60
2023-04-11T05:29:50.001Z,3.00
2023-04-11T05:32:17.963Z,3.00
2023-04-11T05:34:52.648Z,1.00
2023-04-11T05:37:20.915Z,1.00
2023-04-11T05:39:48.893Z,0.60
2023-04-11T05:42:18.631Z,1.40
2023-04-11T05:44:48.047Z,2.60
2023-04-11T05:47:15.923Z,3.00
2023-04-11T05:49:44.364Z,3.00
2023-04-11T05:52:12.604Z,1.80
2023-04-11T05:54:40.977Z,3.00
2023-04-11T05:57:08.898Z,1.40
2023-04-11T05:59:36.795Z,0.00
2023-04-11T06:02:06.799Z,0.40
2023-04-11T06:04:35.008Z,0.00
2023-04-11T06:07:04.396Z,3.00
2023-04-11T06:09:34.076Z,3.00
2023-04-11T06:12:02.529Z,3.00
2023-04-11T06:14:30.413Z,1.00
2023-04-11T06:16:58.303Z,3.00
2023-04-11T06:19:27.657Z,0.00
2023-04-11T06:21:55.836Z,1.00
2023-04-11T06:24:35.851Z,1.00
2023-04-11T06:27:04.589Z,2.20
2023-04-11T06:29:32.578Z,3.20
2023-04-11T06:32:00.530Z,2.60
2023-04-11T06:34:30.296Z,0.40
2023-04-11T06:36:58.279Z,2.60
2023-04-11T06:39:26.257Z,3.00
2023-04-11T06:41:54.412Z,3.00
2023-04-11T06:44:22.411Z,3.20
2023-04-11T06:46:50.410Z,3.00
2023-04-11T06:49:19.002Z,3.60
2023-04-11T06:51:50.070Z,3.00
2023-04-11T06:54:18.181Z,3.40
2023-04-11T06:56:46.449Z,2.60
2023-04-11T06:59:16.974Z,1.00
2023-04-11T07:01:48.412Z,3.00
2023-04-11T07:04:16.673Z,1.00
2023-04-11T07:06:45.081Z,0.00
2023-04-11T07:09:14.730Z,2.20
2023-04-11T07:11:42.736Z,1.00
2023-04-11T07:14:10.652Z,1.80
2023-04-11T07:16:38.932Z,2.20
2023-04-11T07:19:06.974Z,3.00
2023-04-11T07:21:35.183Z,1.80
2023-04-11T07:24:03.166Z,3.20
2023-04-11T07:26:33.089Z,3.00
2023-04-11T07:29:01.325Z,1.80
2023-04-11T07:31:29.289Z,3.00
2023-04-11T07:33:57.417Z,3.20
2023-04-11T07:36:26.705Z,1.00
2023-04-11T07:38:54.592Z,5.80
2023-04-11T07:41:22.709Z,4.20
2023-04-11T07:43:52.378Z,7.80
2023-04-11T07:46:20.632Z,19.20
2023-04-11T07:48:48.541Z,17.20
2023-04-11T07:51:17.033Z,18.20
2023-04-11T07:53:45.011Z,26.20
2023-04-11T07:56:13.605Z,24.80
2023-04-11T07:58:42.017Z,24.80
2023-04-11T08:01:22.650Z,7.20
2023-04-11T08:03:50.813Z,1.40
2023-04-11T08:06:19.225Z,0.60
2023-04-11T08:08:47.749Z,1.00
2023-04-11T08:11:15.635Z,0.40
2023-04-11T08:13:43.826Z,2.60
2023-04-11T08:16:15.015Z,1.80
2023-04-11T08:18:45.626Z,0.60
2023-04-11T08:21:13.709Z,0.20
2023-04-11T08:23:42.599Z,1.00
2023-04-11T08:26:11.960Z,1.00
2023-04-11T08:28:42.638Z,2.60
2023-04-11T08:31:13.244Z,0.00
2023-04-11T08:33:41.689Z,0.00
2023-04-11T08:36:11.943Z,0.00
2023-04-11T08:38:40.388Z,0.00
2023-04-11T08:41:08.399Z,1.00
2023-04-11T08:43:36.394Z,1.00
2023-04-11T08:46:09.080Z,1.00
2023-04-11T08:48:40.094Z,0.00
2023-04-11T08:51:13.914Z,0.00
2023-04-11T08:53:41.971Z,1.00
2023-04-11T08:56:15.697Z,0.00
2023-04-11T08:58:43.996Z,0.60
2023-04-11T09:01:32.296Z,1.00
2023-04-11T09:04:01.256Z,0.00
2023-04-11T09:06:32.805Z,1.00
2023-04-11T09:09:00.900Z,1.00
2023-04-11T09:11:29.468Z,0.80
2023-04-11T09:14:07.831Z,1.00
2023-04-11T09:16:35.892Z,0.00
2023-04-11T09:19:04.304Z,0.00
2023-04-11T09:21:34.907Z,0.00
2023-04-11T09:24:18.642Z,0.00
2023-04-11T09:26:47.009Z,1.00
2023-04-11T09:29:24.274Z,0.60
2023-04-11T09:32:00.219Z,0.00
2023-04-11T09:34:41.212Z,0.40
2023-04-11T09:37:18.846Z,1.00
2023-04-11T09:39:50.880Z,1.00
2023-04-11T09:42:31.543Z,0.60
2023-04-11T09:45:04.696Z,0.80
2023-04-11T09:47:44.861Z,1.80
2023-04-11T09:50:13.887Z,1.00
2023-04-11T09:52:44.537Z,0.00
2023-04-11T09:55:13.687Z,0.80
2023-04-11T09:57:45.630Z,1.00
2023-04-11T10:00:20.516Z,1.00
2023-04-11T10:02:56.422Z,1.00
2023-04-11T10:05:32.296Z,1.00
2023-04-11T10:08:04.792Z,1.00
2023-04-11T10:10:33.068Z,1.00
2023-04-11T10:13:01.060Z,1.00
2023-04-11T10:15:30.086Z,1.00
2023-04-11T10:18:10.561Z,1.00
2023-04-11T10:20:46.182Z,1.00
2023-04-11T10:23:16.475Z,1.00
2023-04-11T10:25:55.255Z,1.00
2023-04-11T10:28:33.659Z,0.40
2023-04-11T10:31:13.991Z,1.00
2023-04-11T10:33:42.108Z,1.00
2023-04-11T10:36:11.235Z,0.60
2023-04-11T10:38:50.639Z,2.60
2023-04-11T10:41:28.840Z,1.00
2023-04-11T10:44:20.910Z,1.00
2023-04-11T10:46:51.679Z,1.00
2023-04-11T10:49:36.372Z,1.00
2023-04-11T10:52:24.546Z,1.00
2023-04-11T10:54:55.174Z,1.00
2023-04-11T10:57:25.676Z,1.00
2023-04-11T11:00:12.165Z,1.00
2023-04-11T11:02:41.189Z,1.00
2023-04-11T11:05:19.415Z,1.00
2023-04-11T11:07:48.820Z,1.00
2023-04-11T11:10:35.232Z,0.80
2023-04-11T11:13:04.165Z,1.00
2023-04-11T11:15:36.523Z,1.00
2023-04-11T11:18:06.345Z,1.00
2023-04-11T11:20:34.382Z,1.00
2023-04-11T11:23:02.904Z,1.00
2023-04-11T11:25:34.445Z,3.00
2023-04-11T11:28:03.415Z,1.00
2023-04-11T11:30:32.008Z,1.00
2023-04-11T11:33:00.953Z,11.00
2023-04-11T11:35:29.103Z,2.60
2023-04-11T11:37:57.296Z,3.00
2023-04-11T11:40:25.273Z,3.00
2023-04-11T11:42:54.513Z,1.00
2023-04-11T11:45:23.533Z,1.00
2023-04-11T11:47:51.674Z,0.80
2023-04-11T11:50:27.799Z,3.00
2023-04-11T11:52:56.648Z,1.00
2023-04-11T11:55:34.359Z,1.00
2023-04-11T11:58:03.886Z,1.00
2023-04-11T12:00:33.221Z,1.00
2023-04-11T12:03:01.773Z,1.00
2023-04-11T12:05:33.324Z,3.00
2023-04-11T12:08:02.678Z,1.40
2023-04-11T12:10:38.526Z,1.00
2023-04-11T12:13:14.612Z,3.00
2023-04-11T12:15:44.594Z,3.00
2023-04-11T12:18:12.515Z,3.00
2023-04-11T12:20:41.505Z,1.00
2023-04-11T12:23:09.733Z,1.00
2023-04-11T12:25:37.769Z,1.00
2023-04-11T12:28:10.478Z,2.20
2023-04-11T12:30:40.074Z,2.60
2023-04-11T12:33:08.095Z,1.40
2023-04-11T12:35:36.192Z,3.00
2023-04-11T12:38:08.025Z,1.00
2023-04-11T12:40:42.529Z,2.60
2023-04-11T12:43:15.974Z,1.80
2023-04-11T12:45:45.902Z,2.20
2023-04-11T12:48:13.889Z,1.00
2023-04-11T12:50:42.091Z,1.00
2023-04-11T12:53:10.063Z,2.20
2023-04-11T12:55:38.213Z,0.00
2023-04-11T12:58:08.043Z,2.20
2023-04-11T13:00:35.943Z,1.00
2023-04-11T13:03:06.154Z,1.00
2023-04-11T13:05:34.327Z,1.00
2023-04-11T13:08:02.711Z,1.00
2023-04-11T13:10:34.399Z,3.00
2023-04-11T13:13:17.377Z,3.00
2023-04-11T13:15:47.451Z,1.00
2023-04-11T13:18:16.849Z,0.00
2023-04-11T13:20:44.933Z,1.80
2023-04-11T13:23:14.853Z,2.20
2023-04-11T13:25:45.854Z,1.00
2023-04-11T13:28:15.289Z,1.00
2023-04-11T13:30:43.589Z,1.40
2023-04-11T13:33:11.566Z,1.00
2023-04-11T13:35:40.939Z,2.60
2023-04-11T13:38:11.100Z,1.00
2023-04-11T13:40:39.560Z,3.00
2023-04-11T13:43:07.433Z,3.00
2023-04-11T13:45:35.455Z,1.00
2023-04-11T13:48:03.494Z,1.00
2023-04-11T13:50:31.623Z,1.00
2023-04-11T13:53:01.340Z,3.00
2023-04-11T13:55:29.245Z,0.80
2023-04-11T13:57:57.167Z,1.00
2023-04-11T14:00:25.220Z,0.60
2023-04-11T14:02:53.380Z,1.00
2023-04-11T14:05:21.633Z,1.00
2023-04-11T14:07:49.865Z,1.00
2023-04-11T14:10:19.329Z,2.20
2023-04-11T14:12:47.366Z,3.00
2023-04-11T14:15:15.323Z,3.00
2023-04-11T14:17:44.039Z,1.00
2023-04-11T14:20:12.542Z,1.00
2023-04-11T14:22:40.991Z,1.40
2023-04-11T14:25:11.082Z,3.00
2023-04-11T14:27:40.665Z,0.60
2023-04-11T14:30:10.053Z,0.00
2023-04-11T14:32:38.153Z,1.00
2023-04-11T14:35:08.275Z,3.00
2023-04-11T14:37:36.582Z,4.00
2023-04-11T14:40:05.071Z,1.00
2023-04-11T14:42:33.384Z,0.00
2023-04-11T14:45:03.181Z,0.20
2023-04-11T14:47:31.094Z,1.00
2023-04-11T14:49:59.105Z,0.00
2023-04-11T14:52:27.292Z,0.00
2023-04-11T14:54:55.243Z,1.00
2023-04-11T14:57:23.553Z,1.00
2023-04-11T14:59:51.467Z,1.00
2023-04-11T15:02:21.089Z,1.00
2023-04-11T15:04:49.359Z,0.00
2023-04-11T15:07:17.612Z,1.00
2023-04-11T15:09:46.231Z,1.00
2023-04-11T15:12:14.476Z,1.00
2023-04-11T15:14:42.407Z,0.20
2023-04-11T15:17:10.906Z,1.00
2023-04-11T15:19:40.472Z,1.00
2023-04-11T15:22:08.655Z,0.80
2023-04-11T15:24:36.571Z,1.00
2023-04-11T15:27:04.655Z,0.60
2023-04-11T15:29:32.979Z,1.00
2023-04-11T15:32:03.161Z,0.80
2023-04-11T15:34:31.141Z,0.80
2023-04-11T15:37:00.814Z,1.00
2023-04-11T15:39:28.844Z,1.40
2023-04-11T15:41:57.154Z,1.00
2023-04-11T15:44:25.074Z,1.00
2023-04-11T15:46:53.282Z,0.60
2023-04-11T15:49:21.217Z,0.00
2023-04-11T15:51:49.174Z,2.20
2023-04-11T15:54:18.822Z,1.00
2023-04-11T15:56:46.808Z,1.00
2023-04-11T15:59:16.138Z,0.50
2023-04-11T16:01:44.737Z,0.00
2023-04-11T16:04:12.864Z,1.00
2023-04-11T16:06:40.837Z,0.00
2023-04-11T16:09:09.019Z,1.00
2023-04-11T16:11:39.907Z,1.00
2023-04-11T16:14:07.794Z,0.00
2023-04-11T16:16:40.541Z,1.00
2023-04-11T16:19:08.512Z,1.00
2023-04-11T16:21:36.726Z,0.00
2023-04-11T16:24:05.143Z,1.50
2023-04-11T16:26:33.383Z,1.00
2023-04-11T16:29:03.266Z,3.00
2023-04-11T16:31:32.100Z,1.50
2023-04-11T16:34:00.155Z,0.75
2023-04-11T16:36:31.764Z,1.00
2023-04-11T16:39:09.038Z,1.00
2023-04-11T16:41:37.359Z,1.00
2023-04-11T16:44:11.206Z,0.00
2023-04-11T16:46:39.229Z,1.00
2023-04-11T16:49:08.741Z,1.00
2023-04-11T16:51:36.961Z,1.00
2023-04-11T16:54:09.609Z,0.25
2023-04-11T16:56:37.603Z,0.75
2023-04-11T16:59:06.947Z,1.00
2023-04-11T17:01:34.824Z,0.00
2023-04-11T17:04:02.833Z,1.00
2023-04-11T17:06:31.523Z,0.00
2023-04-11T17:08:59.502Z,2.00
2023-04-11T17:11:29.385Z,0.00
2023-04-11T17:13:57.834Z,0.00
2023-04-11T17:16:27.311Z,0.00
2023-04-11T17:18:56.242Z,0.00
2023-04-11T17:21:24.183Z,0.00
2023-04-11T17:23:52.143Z,1.00
2023-04-11T17:26:20.411Z,1.00
2023-04-11T17:28:48.307Z,1.00
2023-04-11T17:31:17.347Z,1.00
2023-04-11T17:33:48.113Z,0.60
2023-04-11T17:36:16.077Z,0.00
2023-04-11T17:38:44.669Z,1.00
2023-04-11T17:41:15.171Z,0.00
2023-04-11T17:43:43.623Z,1.00
2023-04-11T17:46:12.498Z,0.40
2023-04-11T17:48:40.788Z,2.20
2023-04-11T17:51:10.098Z,0.00
2023-04-11T17:53:38.126Z,1.00
2023-04-11T17:56:07.156Z,1.00
2023-04-11T17:58:35.427Z,1.00
2023-04-11T18:01:04.553Z,0.20
2023-04-11T18:03:35.152Z,1.00
2023-04-11T18:06:04.000Z,1.00
2023-04-11T18:08:49.969Z,1.00
2023-04-11T18:11:20.907Z,1.00
2023-04-11T18:13:50.441Z,1.00
2023-04-11T18:16:18.716Z,0.80
2023-04-11T18:18:47.378Z,0.00
2023-04-11T18:21:16.083Z,1.00
2023-04-11T18:23:45.395Z,0.60
2023-04-11T18:26:13.354Z,0.80
2023-04-11T18:28:41.184Z,0.00
2023-04-11T18:31:09.536Z,0.20
2023-04-11T18:33:41.922Z,0.00
2023-04-11T18:36:12.049Z,0.00
2023-04-11T18:38:40.393Z,0.00
2023-04-11T18:41:10.240Z,0.00
2023-04-11T18:43:39.059Z,0.00
2023-04-11T18:46:09.614Z,0.80
2023-04-11T18:48:37.681Z,0.00
2023-04-11T18:51:06.599Z,0.80
2023-04-11T18:53:36.600Z,1.00
2023-04-11T18:56:04.961Z,0.00
2023-04-11T18:58:38.484Z,0.00
2023-04-11T19:01:15.363Z,1.00
2023-04-11T19:03:44.478Z,3.00
2023-04-11T19:06:13.114Z,3.00
2023-04-11T19:08:41.617Z,2.60
2023-04-11T19:11:09.587Z,4.80
2023-04-11T19:13:38.974Z,3.00
2023-04-11T19:16:07.645Z,4.80
2023-04-11T19:18:35.723Z,7.00
2023-04-11T19:21:03.791Z,5.60
2023-04-11T19:23:31.958Z,9.80
2023-04-11T19:26:00.766Z,6.80
2023-04-11T19:28:28.666Z,9.40
2023-04-11T19:30:57.980Z,4.00
2023-04-11T19:33:26.152Z,4.80
2023-04-11T19:35:54.272Z,6.40
2023-04-11T19:38:22.481Z,7.00
2023-04-11T19:40:50.808Z,7.80
2023-04-11T19:43:19.751Z,8.20
2023-04-11T19:45:47.797Z,6.40
2023-04-11T19:48:17.933Z,3.80
2023-04-11T19:50:45.883Z,3.20
2023-04-11T19:53:13.767Z,4.20
2023-04-11T19:55:41.911Z,4.00
2023-04-11T19:58:09.927Z,3.00
2023-04-11T20:00:38.724Z,3.60
2023-04-11T20:03:07.945Z,5.20
2023-04-11T20:05:37.877Z,3.60
2023-04-11T20:08:05.789Z,4.80
2023-04-11T20:10:34.207Z,6.00
2023-04-11T20:13:02.407Z,1.00
2023-04-11T20:15:30.479Z,3.00
2023-04-11T20:17:58.785Z,3.00
2023-04-11T20:20:27.994Z,1.80
2023-04-11T20:22:57.345Z,1.00
2023-04-11T20:25:25.379Z,6.60
2023-04-11T20:27:53.481Z,1.00
2023-04-11T20:30:21.889Z,3.00
2023-04-11T20:32:50.075Z,0.00
2023-04-11T20:35:19.317Z,1.00
2023-04-11T20:37:49.877Z,1.00
2023-04-11T20:40:19.308Z,1.00
2023-04-11T20:42:47.563Z,3.00
2023-04-11T20:45:16.325Z,1.80
2023-04-11T20:47:45.971Z,1.00
2023-04-11T20:50:14.717Z,1.00
2023-04-11T20:52:43.403Z,1.80
2023-04-11T20:55:11.750Z,0.20
2023-04-11T20:57:41.059Z,3.00
2023-04-11T21:00:13.999Z,1.00
2023-04-11T21:02:44.112Z,1.00
2023-04-11T21:05:12.997Z,3.00
2023-04-11T21:07:41.477Z,1.40
2023-04-11T21:10:10.384Z,1.00
2023-04-11T21:12:38.409Z,1.40
2023-04-11T21:15:09.140Z,1.00
2023-04-11T21:17:39.445Z,1.40
2023-04-11T21:20:11.108Z,1.00
2023-04-11T21:22:40.268Z,3.00
2023-04-11T21:25:10.146Z,1.80
2023-04-11T21:27:41.452Z,1.00
2023-04-11T21:30:11.870Z,1.80
2023-04-11T21:32:39.923Z,3.00
2023-04-11T21:35:09.448Z,1.00
2023-04-11T21:37:37.478Z,1.40
2023-04-11T21:40:06.217Z,1.00
2023-04-11T21:42:34.267Z,1.00
2023-04-11T21:45:02.213Z,3.00
2023-04-11T21:47:31.574Z,1.40
2023-04-11T21:49:59.497Z,3.00
2023-04-11T21:52:27.460Z,1.00
2023-04-11T21:54:55.325Z,2.60
2023-04-11T21:57:23.223Z,0.60
2023-04-11T21:59:51.165Z,2.20
2023-04-11T22:02:19.679Z,3.00
2023-04-11T22:05:04.816Z,2.60
2023-04-11T22:07:39.058Z,1.00
2023-04-11T22:10:10.558Z,1.40
2023-04-11T22:12:38.505Z,0.00
2023-04-11T22:15:07.757Z,0.00
2023-04-11T22:17:37.341Z,1.00
2023-04-11T22:20:09.256Z,1.80
2023-04-11T22:22:38.691Z,3.00
2023-04-11T22:25:08.385Z,1.00
2023-04-11T22:27:36.287Z,1.00
2023-04-11T22:30:05.880Z,3.00
2023-04-11T22:32:34.588Z,1.00
2023-04-11T22:35:02.720Z,1.00
2023-04-11T22:37:32.091Z,1.00
2023-04-11T22:39:59.931Z,1.00
2023-04-11T22:42:27.817Z,1.00
2023-04-11T22:44:55.697Z,1.00
2023-04-11T22:47:23.672Z,1.00
2023-04-11T22:49:51.629Z,0.40
2023-04-11T22:52:24.290Z,0.20
2023-04-11T22:54:53.724Z,2.60
2023-04-11T22:57:21.713Z,0.20
2023-04-11T22:59:49.891Z,1.00
2023-04-11T23:02:17.991Z,1.00
2023-04-11T23:04:46.458Z,1.40
2023-04-11T23:07:14.381Z,1.00
2023-04-11T23:09:42.660Z,0.80
2023-04-11T23:12:12.155Z,3.00
2023-04-11T23:14:40.042Z,1.00
2023-04-11T23:17:08.383Z,0.60
2023-04-11T23:19:36.979Z,0.00
2023-04-11T23:22:06.444Z,0.00
2023-04-11T23:24:34.412Z,0.00
2023-04-11T23:27:02.692Z,0.00
2023-04-11T23:29:31.974Z,1.00
2023-04-11T23:31:59.913Z,1.00
2023-04-11T23:34:27.914Z,0.80
2023-04-11T23:36:57.530Z,1.00
2023-04-11T23:39:26.467Z,0.80
2023-04-11T23:41:54.694Z,3.00
2023-04-11T23:44:22.650Z,0.20
2023-04-11T23:46:52.005Z,0.00
2023-04-11T23:49:19.901Z,0.40
2023-04-11T23:51:48.357Z,0.00
2023-04-11T23:54:16.411Z,1.00
2023-04-11T23:56:44.895Z,1.00
2023-04-11T23:59:13.133Z,2.60
